CYHU

Montreal Saint-Hubert Longueuil Airport

Airport
ICAO code
CYHU
IATA Code
YHU
Summary
ICAO Region
NAM
ICAO Territory
Location

Saint Hubert, Quebec

Serving
Montreal
Elevation
90 ft
Coordinates
45° 31' 5" N , 73° 25' 1" W
KCC
Dfb
Metar
Observation
CYHU 110400Z AUTO 20003KT 9SM CLR 18/15 A2994 RMK SLP141 DENSITY ALT 500FT
Station
Saint Hubert Airport
Date/Time
2022-08-11 04:00:00
Wind direction
200°
Wind speed
03 kts
Lowest cloud amount
n/a
Temperature
18°C
Dew point
15°C
Humidity
82%
Weather condition
n/a

Montréal Saint-Hubert Longueuil Airport, also called Montréal/Saint-Hubert Airport, is located in the Saint-Hubert borough of Longueuil, Quebec.

Climatology

Humid continental climate (Köppen climate classification Dfb)

Runways

Designator Length Width Surface Rops
10/28 853 46 ASP Yes/Yes
06R/24L 1195 30 ASP Yes/Yes
06L/24R 2390 46 ASP Yes/Yes

Airport map

Aerial View

SKYbrary Partners:

Safety knowledge contributed by: